Time;durP1;ratioP1;P1;durP2;ratioP2;P2;SDS_P1;SDS_P2;PMS_P1;PMS_P2;Temp;Humidity;BMP_temperature;BMP_pressure;BME280_temperature;BME280_humidity;BME280_pressure;Samples;Min_cycle;Max_cycle;Signal;HPM_P1;HPM_P2
2023/05/17 00:02:23;;;;;;;;;3.00;3.00;;;;;11.52;72.77;101596.91;5014870;28;45665;-71
2023/05/17 00:04:49;;;;;;;;;7.75;7.75;;;;;11.61;72.93;101624.75;5015225;28;46213;-74
2023/05/17 00:07:14;;;;;;;;;10.00;10.00;;;;;11.57;72.74;101620.47;5014863;28;45213;-73
2023/05/17 00:09:40;;;;;;;;;7.75;7.75;;;;;11.52;72.77;101618.81;5014614;28;45408;-73
2023/05/17 00:12:05;;;;;;;;;7.00;7.00;;;;;11.48;73.20;101618.97;5014944;28;45507;-74
2023/05/17 00:14:31;;;;;;;;;7.00;7.00;;;;;11.47;73.13;101623.34;5014477;28;45579;-73
2023/05/17 00:16:56;;;;;;;;;8.75;8.75;;;;;11.43;73.83;101616.44;5015628;28;45546;-69
2023/05/17 00:19:21;;;;;;;;;10.25;10.25;;;;;11.44;73.60;101623.44;5014907;28;45443;-72
2023/05/17 00:21:47;;;;;;;;;6.25;6.25;;;;;11.44;73.72;101612.91;5014917;28;45386;-73
2023/05/17 00:24:12;;;;;;;;;9.50;9.50;;;;;11.41;73.06;101610.34;5014325;28;45387;-73
2023/05/17 00:26:37;;;;;;;;;7.00;7.00;;;;;11.37;73.71;101617.50;5014274;28;45410;-65
2023/05/17 00:29:03;;;;;;;;;10.25;10.25;;;;;11.27;73.89;101604.59;5014499;28;45418;-66
2023/05/17 00:31:28;;;;;;;;;8.50;8.50;;;;;11.31;74.33;101616.78;5014650;28;45322;-64
2023/05/17 00:33:54;;;;;;;;;7.50;7.50;;;;;11.23;73.67;101612.59;5014241;28;45476;-73
2023/05/17 00:36:19;;;;;;;;;9.25;9.25;;;;;11.29;73.93;101618.59;5014563;28;45345;-70
2023/05/17 00:38:45;;;;;;;;;8.75;8.75;;;;;11.28;74.50;101612.47;5014227;28;45367;-75
2023/05/17 00:41:11;;;;;;;;;9.50;8.75;;;;;11.31;74.14;101606.25;5014662;28;45542;-73
2023/05/17 00:43:37;;;;;;;;;2.75;2.75;;;;;11.27;74.54;101616.00;5014174;28;46562;-66
2023/05/17 00:46:02;;;;;;;;;10.25;10.25;;;;;11.26;74.53;101616.91;5013974;28;45462;-68
2023/05/17 00:48:28;;;;;;;;;9.00;9.00;;;;;11.27;74.21;101621.28;5014179;28;48786;-73
2023/05/17 00:50:54;;;;;;;;;11.00;11.00;;;;;11.29;74.61;101622.09;5014869;28;45596;-72
2023/05/17 00:53:20;;;;;;;;;7.75;7.75;;;;;11.29;75.12;101619.47;5014172;28;46368;-69
2023/05/17 00:55:46;;;;;;;;;9.25;9.25;;;;;11.27;74.49;101623.91;5014004;28;45364;-66
2023/05/17 00:58:12;;;;;;;;;8.50;8.50;;;;;11.24;75.10;101616.09;5014282;28;45491;-66
2023/05/17 01:00:38;;;;;;;;;10.50;10.50;;;;;11.18;75.43;101611.84;5014687;28;45526;-66
2023/05/17 01:03:03;;;;;;;;;9.25;9.25;;;;;11.18;75.18;101605.72;5014478;28;46109;-68
2023/05/17 01:05:29;;;;;;;;;9.50;9.50;;;;;11.16;75.24;101612.81;5016181;28;45413;-67
2023/05/17 01:07:54;;;;;;;;;10.50;10.50;;;;;11.14;75.53;101607.56;5017309;28;45318;-67
2023/05/17 01:10:26;;;;;;;;;10.00;10.00;;;;;11.09;76.53;101610.28;5017758;28;45546;-75
2023/05/17 01:13:08;;;;;;;;;7.75;7.75;;;;;11.08;76.37;101608.56;5017471;28;45680;-63
2023/05/17 01:15:40;;;;;;;;;7.25;7.25;;;;;11.05;77.00;101607.78;5016966;28;45365;-65
2023/05/17 01:18:24;;;;;;;;;7.25;7.25;;;;;11.08;76.69;101615.63;5016909;28;45508;-68
2023/05/17 01:20:52;;;;;;;;;10.75;10.75;;;;;10.92;76.97;101584.41;5015893;28;45416;-65
2023/05/17 01:23:45;;;;;;;;;8.50;8.50;;;;;11.02;76.80;101606.09;4998811;28;46217;-70
2023/05/17 01:26:17;;;;;;;;;7.25;7.25;;;;;11.03;77.11;101604.34;5016690;28;45443;-72
2023/05/17 01:28:46;;;;;;;;;8.50;8.50;;;;;11.04;77.50;101606.06;5016782;28;45434;-70
2023/05/17 01:31:12;;;;;;;;;9.75;9.75;;;;;11.01;77.38;101611.41;5016884;28;45555;-73
2023/05/17 01:33:38;;;;;;;;;8.50;8.50;;;;;10.93;77.41;101609.84;5016611;28;46633;-71
2023/05/17 01:36:04;;;;;;;;;8.00;8.00;;;;;10.93;77.69;101604.56;5015366;28;45239;-71
2023/05/17 01:38:29;;;;;;;;;12.00;12.00;;;;;10.94;78.43;101614.19;5017228;28;45780;-69
2023/05/17 01:41:03;;;;;;;;;11.00;11.00;;;;;10.92;78.49;101607.22;5017221;28;45537;-65
2023/05/17 01:43:49;;;;;;;;;10.75;9.50;;;;;10.88;78.59;101602.94;5016664;28;45364;-67
2023/05/17 01:46:27;;;;;;;;;11.00;10.00;;;;;10.84;78.96;101599.53;5016312;28;45291;-72
2023/05/17 01:49:15;;;;;;;;;11.00;11.00;;;;;10.87;78.56;101604.72;5016951;28;45303;-67
2023/05/17 01:51:48;;;;;;;;;11.75;11.75;;;;;10.84;78.99;101603.94;5017064;28;45366;-72
2023/05/17 01:54:19;;;;;;;;;12.00;12.00;;;;;10.82;79.66;101598.72;5016576;28;46490;-74
2023/05/17 01:56:50;;;;;;;;;8.75;8.75;;;;;10.79;79.85;101599.66;5015026;28;45198;-64
2023/05/17 01:59:22;;;;;;;;;10.00;10.00;;;;;10.78;80.27;101594.44;5016161;28;45591;-65
2023/05/17 02:01:50;;;;;;;;;12.75;12.75;;;;;10.82;80.11;101601.34;5016255;28;45314;-68
2023/05/17 02:04:15;;;;;;;;;10.50;10.50;;;;;10.84;79.32;101601.28;5014507;28;48548;-73
2023/05/17 02:06:40;;;;;;;;;9.75;9.75;;;;;10.80;80.22;101595.25;5015943;28;45436;-72
2023/05/17 02:09:05;;;;;;;;;13.00;13.00;;;;;10.90;80.18;101598.50;5015834;28;51628;-74
2023/05/17 02:11:31;;;;;;;;;11.75;11.75;;;;;10.91;79.95;101609.03;5016511;28;45686;-73
2023/05/17 02:13:57;;;;;;;;;12.50;12.50;;;;;10.92;79.89;101608.13;5014933;28;47250;-72
2023/05/17 02:16:22;;;;;;;;;8.00;8.00;;;;;10.93;79.97;101606.31;5016565;28;45334;-74
2023/05/17 02:18:48;;;;;;;;;7.75;7.75;;;;;10.88;80.32;101598.56;5016058;28;45214;-69
2023/05/17 02:21:13;;;;;;;;;11.50;11.50;;;;;10.83;81.13;101592.56;5016501;28;45201;-72
2023/05/17 02:23:38;;;;;;;;;12.00;12.00;;;;;10.88;81.08;101603.81;5016121;28;47099;-74
2023/05/17 02:26:04;;;;;;;;;10.00;10.00;;;;;10.90;80.66;101612.56;5016079;28;45453;-73
2023/05/17 02:28:29;;;;;;;;;11.25;11.25;;;;;10.86;80.99;101605.63;5016416;28;45789;-74
2023/05/17 02:30:55;;;;;;;;;10.75;10.75;;;;;10.91;80.63;101609.03;5015315;28;45631;-71
2023/05/17 02:33:21;;;;;;;;;11.00;11.00;;;;;10.97;80.80;101615.88;5015496;28;46414;-68
2023/05/17 02:35:48;;;;;;;;;12.00;12.00;;;;;11.02;81.05;101626.31;5015789;28;45957;-69
2023/05/17 02:38:14;;;;;;;;;12.75;12.75;;;;;11.02;80.94;101618.41;5015812;28;45438;-70
2023/05/17 02:40:40;;;;;;;;;11.50;10.75;;;;;11.03;80.78;101622.78;5015974;28;45734;-72
2023/05/17 02:43:06;;;;;;;;;11.25;11.25;;;;;11.04;80.76;101621.88;5015902;28;46150;-69
2023/05/17 02:45:31;;;;;;;;;11.75;11.75;;;;;11.06;81.34;101625.31;5015996;28;45344;-72
2023/05/17 02:47:56;;;;;;;;;11.75;11.75;;;;;11.06;81.14;101622.69;5016573;28;45289;-70
2023/05/17 02:50:21;;;;;;;;;11.50;11.50;;;;;11.09;81.38;101636.63;5015308;28;46292;-73
2023/05/17 02:52:47;;;;;;;;;13.50;12.50;;;;;11.03;80.54;101617.50;5015890;28;46152;-73
2023/05/17 02:55:12;;;;;;;;;15.25;15.25;;;;;11.06;80.56;101622.69;5015419;28;45505;-72
2023/05/17 02:57:37;;;;;;;;;14.25;14.25;;;;;11.05;80.56;101621.81;5015655;28;45319;-73
2023/05/17 03:00:04;;;;;;;;;15.25;15.25;;;;;11.06;81.29;101626.16;5015949;28;45345;-70
2023/05/17 03:02:30;;;;;;;;;16.00;16.00;;;;;11.05;81.45;101632.34;5015820;28;46191;-63
2023/05/17 03:04:55;;;;;;;;;13.50;13.50;;;;;11.00;81.75;101621.06;5016003;28;45280;-70
2023/05/17 03:07:20;;;;;;;;;16.75;16.75;;;;;11.02;81.38;101631.56;5013885;28;51328;-72
2023/05/17 03:09:46;;;;;;;;;17.00;17.00;;;;;10.99;82.19;101631.66;5013852;28;48654;-71
2023/05/17 03:12:11;;;;;;;;;14.25;14.25;;;;;10.94;82.45;101627.38;5015381;28;45508;-73
2023/05/17 03:14:36;;;;;;;;;15.00;14.50;;;;;10.87;82.67;101631.06;5013628;28;45408;-69
2023/05/17 03:17:02;;;;;;;;;21.00;21.00;;;;;10.85;82.27;101624.97;5015421;28;45500;-69
2023/05/17 03:19:27;;;;;;;;;19.50;17.75;;;;;10.81;83.25;101624.16;5015967;28;45565;-73
2023/05/17 03:21:52;;;;;;;;;18.50;18.50;;;;;10.79;83.52;101625.13;5013761;28;49499;-71
2023/05/17 03:24:17;;;;;;;;;19.00;18.50;;;;;10.80;83.21;101637.38;5015155;28;45425;-72
2023/05/17 03:26:43;;;;;;;;;16.00;16.00;;;;;10.76;83.60;101630.44;5015598;28;45360;-70
2023/05/17 03:29:08;;;;;;;;;16.00;16.00;;;;;10.61;83.57;101606.25;5014555;28;45323;-71
2023/05/17 03:31:34;;;;;;;;;19.50;19.50;;;;;10.77;83.91;101637.44;5014839;28;46108;-72
2023/05/17 03:33:59;;;;;;;;;18.00;18.00;;;;;10.74;84.50;101635.75;5014996;28;45430;-73
2023/05/17 03:36:25;;;;;;;;;21.50;21.50;;;;;10.71;84.29;101642.84;5014977;28;45520;-70
2023/05/17 03:38:50;;;;;;;;;20.75;20.75;;;;;10.65;84.69;101634.22;5015026;28;45649;-75
2023/05/17 03:41:15;;;;;;;;;20.75;20.75;;;;;10.61;85.90;101629.03;5014451;28;52069;-75
2023/05/17 03:43:40;;;;;;;;;26.25;22.50;;;;;10.57;85.24;101630.84;5013675;28;45376;-75
2023/05/17 03:46:06;;;;;;;;;16.50;16.50;;;;;10.61;85.91;101639.56;5015126;28;45369;-75
2023/05/17 03:48:31;;;;;;;;;20.75;19.75;;;;;10.54;86.22;101636.19;5015649;28;45545;-74
2023/05/17 03:50:57;;;;;;;;;20.00;20.00;;;;;10.49;86.31;101632.81;5014796;28;46205;-69
2023/05/17 03:53:22;;;;;;;;;20.25;20.25;;;;;10.46;86.89;101640.78;5014802;28;45309;-70
2023/05/17 03:55:47;;;;;;;;;21.25;20.75;;;;;10.43;87.26;101643.47;5014622;28;45448;-69
2023/05/17 03:58:13;;;;;;;;;20.00;20.00;;;;;10.37;87.14;101647.94;5015157;28;45649;-66
2023/05/17 04:00:38;;;;;;;;;20.75;20.75;;;;;10.35;87.21;101651.53;5014421;28;46494;-67
2023/05/17 04:03:03;;;;;;;;;21.00;20.50;;;;;10.32;88.10;101651.59;5015184;28;45321;-64
2023/05/17 04:05:29;;;;;;;;;22.00;22.00;;;;;10.31;88.36;101653.34;5016527;28;45269;-68
2023/05/17 04:07:54;;;;;;;;;18.00;18.00;;;;;10.28;88.62;101653.41;5015857;28;45580;-71
2023/05/17 04:10:20;;;;;;;;;21.00;21.00;;;;;10.28;88.47;101649.91;5014180;28;46455;-63
2023/05/17 04:12:45;;;;;;;;;21.50;21.50;;;;;10.38;88.44;101667.22;5014352;28;45340;-62
2023/05/17 04:15:10;;;;;;;;;19.50;19.25;;;;;10.39;88.57;101658.44;5014418;28;45354;-62
2023/05/17 04:17:36;;;;;;;;;22.50;22.50;;;;;10.40;87.83;101657.56;5014609;28;45282;-68
2023/05/17 04:20:04;;;;;;;;;24.75;24.25;;;;;10.40;88.31;101665.47;5014413;28;46095;-64
2023/05/17 04:22:29;;;;;;;;;24.00;24.00;;;;;10.26;87.77;101644.69;5014413;28;45418;-72
2023/05/17 04:24:54;;;;;;;;;21.75;21.75;;;;;10.33;88.28;101659.44;5015295;28;45383;-74
2023/05/17 04:27:20;;;;;;;;;21.75;21.75;;;;;10.36;88.90;101680.41;5016049;28;45371;-69
2023/05/17 04:29:46;;;;;;;;;23.25;23.25;;;;;10.34;88.81;101682.19;5013835;28;47392;-66
2023/05/17 04:32:11;;;;;;;;;19.75;19.75;;;;;10.25;89.35;101678.91;5014194;28;45371;-70
2023/05/17 04:34:37;;;;;;;;;20.75;20.75;;;;;10.16;89.63;101672.06;5014695;28;45246;-72
2023/05/17 04:37:02;;;;;;;;;25.25;24.25;;;;;10.18;89.90;101693.94;5015112;28;45632;-71
2023/05/17 04:39:28;;;;;;;;;23.75;23.75;;;;;10.15;89.52;101691.38;5014141;28;45359;-70
2023/05/17 04:41:53;;;;;;;;;23.75;22.00;;;;;10.13;90.25;101699.31;5017522;28;45260;-75
2023/05/17 04:44:18;;;;;;;;;19.75;19.75;;;;;10.09;90.47;101693.22;5016276;28;45215;-69
2023/05/17 04:46:44;;;;;;;;;23.50;23.50;;;;;10.14;90.27;101689.66;5016506;28;45250;-73
2023/05/17 04:49:10;;;;;;;;;58.25;47.50;;;;;10.13;90.08;101698.44;5017428;28;46530;-71
2023/05/17 04:51:35;;;;;;;;;26.25;26.25;;;;;10.17;90.40;101694.84;5018376;28;45317;-73
2023/05/17 04:54:05;;;;;;;;;23.50;23.50;;;;;10.16;90.28;101706.25;5017534;28;45430;-73
2023/05/17 04:56:31;;;;;;;;;15.75;15.75;;;;;10.16;90.07;101712.41;5017623;28;45598;-68
2023/05/17 04:58:56;;;;;;;;;26.00;25.25;;;;;10.15;90.29;101704.53;5017185;28;45163;-66
2023/05/17 05:01:21;;;;;;;;;24.50;24.50;;;;;10.18;90.25;101702.72;5016631;28;59174;-75
2023/05/17 05:03:47;;;;;;;;;25.25;25.25;;;;;10.19;90.06;101700.94;5016316;28;45303;-74
2023/05/17 05:06:12;;;;;;;;;26.50;26.50;;;;;10.24;90.11;101706.97;5017662;28;45460;-73
2023/05/17 05:08:37;;;;;;;;;20.50;20.50;;;;;10.30;89.69;101712.09;5017058;28;48308;-69
2023/05/17 05:11:03;;;;;;;;;23.00;23.00;;;;;10.31;90.12;101700.66;5017062;28;55267;-73
2023/05/17 05:13:29;;;;;;;;;24.50;24.50;;;;;10.47;89.49;101717.03;5024574;28;45269;-74
2023/05/17 05:15:54;;;;;;;;;26.00;26.00;;;;;10.57;88.83;101728.22;5035374;28;45394;-71
2023/05/17 05:18:20;;;;;;;;;27.00;27.00;;;;;10.63;88.37;101724.59;5035365;28;46131;-72
2023/05/17 05:20:47;;;;;;;;;30.00;28.00;;;;;10.69;87.66;101734.13;5037035;28;45388;-71
2023/05/17 05:23:12;;;;;;;;;24.75;24.75;;;;;10.73;87.11;101725.25;5036924;28;45393;-73
2023/05/17 05:25:38;;;;;;;;;23.25;22.75;;;;;10.83;87.18;101737.31;5037268;28;45466;-70
2023/05/17 05:28:03;;;;;;;;;23.75;23.75;;;;;10.91;86.35;101737.13;5025870;28;46121;-70
2023/05/17 05:30:29;;;;;;;;;24.75;24.75;;;;;10.96;85.52;101743.16;5015120;28;45523;-70
2023/05/17 05:32:54;;;;;;;;;24.00;24.00;;;;;10.98;85.78;101737.84;5030319;28;46177;-77
2023/05/17 05:35:24;;;;;;;;;24.25;24.00;;;;;10.95;85.16;101739.66;5015975;28;45459;-74
2023/05/17 05:37:50;;;;;;;;;21.50;21.25;;;;;10.96;85.63;101748.41;5016744;28;46219;-72
2023/05/17 05:40:15;;;;;;;;;21.50;21.25;;;;;10.95;85.46;101752.81;5016376;28;45291;-69
2023/05/17 05:42:41;;;;;;;;;23.75;23.75;;;;;10.97;85.34;101750.13;5031279;28;45374;-71
2023/05/17 05:45:07;;;;;;;;;22.75;22.75;;;;;11.02;85.17;101755.31;5035964;28;45561;-73
2023/05/17 05:47:32;;;;;;;;;27.25;25.50;;;;;10.98;84.61;101751.88;5027230;28;45482;-73
2023/05/17 05:49:57;;;;;;;;;29.25;29.25;;;;;10.97;84.62;101758.03;5015810;28;45319;-68
2023/05/17 05:52:23;;;;;;;;;27.00;27.00;;;;;10.96;84.60;101765.09;5030276;28;46000;-79
2023/05/17 05:54:48;;;;;;;;;25.00;22.75;;;;;10.88;85.20;101756.50;5038147;28;45544;-79
2023/05/17 05:57:13;;;;;;;;;24.75;22.50;;;;;10.93;85.02;101764.28;5039623;28;45526;-82
2023/05/17 05:59:39;;;;;;;;;25.50;25.25;;;;;10.74;84.84;101740.16;5040053;28;45333;-66
2023/05/17 06:02:04;;;;;;;;;23.00;22.75;;;;;10.81;84.99;101765.44;5040625;28;45934;-64
2023/05/17 06:04:29;;;;;;;;;23.50;23.50;;;;;10.80;84.76;101774.22;5038278;28;45445;-78
2023/05/17 06:06:55;;;;;;;;;25.25;23.00;;;;;10.70;84.91;101767.44;5038078;28;46334;-69
2023/05/17 06:09:20;;;;;;;;;22.75;22.75;;;;;10.63;85.23;101766.69;5036482;28;46224;-67
2023/05/17 06:11:45;;;;;;;;;21.75;21.75;;;;;10.66;85.23;101771.88;5037225;28;45371;-78
2023/05/17 06:14:11;;;;;;;;;30.50;28.75;;;;;10.64;85.48;101774.56;5037004;28;45377;-77
2023/05/17 06:16:36;;;;;;;;;20.75;20.75;;;;;10.66;85.44;101788.56;5042171;28;45786;-72
2023/05/17 06:19:02;;;;;;;;;22.00;22.00;;;;;10.64;85.71;101790.34;5042057;28;45288;-65
2023/05/17 06:21:28;;;;;;;;;18.50;18.50;;;;;10.58;85.54;101784.34;5045036;28;45378;-72
2023/05/17 06:23:53;;;;;;;;;21.50;20.75;;;;;10.66;86.22;101796.44;5040390;28;45589;-74
2023/05/17 06:26:19;;;;;;;;;22.75;22.50;;;;;10.65;86.07;101789.47;5038676;28;46382;-77
2023/05/17 06:28:44;;;;;;;;;21.25;20.50;;;;;10.70;85.57;101794.59;5038003;28;45321;-64
2023/05/17 06:31:10;;;;;;;;;24.00;24.00;;;;;10.75;86.11;101803.28;5039085;28;45220;-73
2023/05/17 06:33:35;;;;;;;;;24.00;23.00;;;;;10.75;85.61;101802.41;5039878;28;45565;-67
2023/05/17 06:36:00;;;;;;;;;15.25;14.50;;;;;10.79;84.70;101804.09;5036459;28;45546;-77
2023/05/17 06:38:26;;;;;;;;;27.75;26.00;;;;;10.77;84.87;101790.09;5036799;28;45365;-79
2023/05/17 06:40:56;;;;;;;;;22.75;22.00;;;;;10.84;84.48;101798.69;5038218;28;45350;-76
2023/05/17 06:43:21;;;;;;;;;23.00;22.25;;;;;10.82;84.01;101789.06;5037333;28;45459;-81
2023/05/17 06:45:47;;;;;;;;;24.25;22.50;;;;;10.92;84.00;101802.03;5038027;28;46182;-77
2023/05/17 06:48:12;;;;;;;;;19.75;19.75;;;;;10.92;83.53;101795.03;5038125;28;45294;-74
2023/05/17 06:50:38;;;;;;;;;21.75;21.75;;;;;10.95;83.16;101792.31;5037820;28;45240;-83
2023/05/17 06:53:03;;;;;;;;;21.25;19.50;;;;;10.97;83.16;101781.72;5038034;28;45331;-80
2023/05/17 06:55:29;;;;;;;;;15.25;15.25;;;;;11.08;82.04;101806.06;5036436;28;45321;-81
2023/05/17 06:57:54;;;;;;;;;19.00;19.00;;;;;11.10;82.67;101801.63;5035785;28;57948;-80
2023/05/17 07:00:20;;;;;;;;;21.75;21.75;;;;;11.20;82.69;101810.19;5036074;28;45236;-74
2023/05/17 07:02:45;;;;;;;;;22.00;21.25;;;;;11.26;81.72;101803.94;5035867;28;45502;-78
2023/05/17 07:05:11;;;;;;;;;18.25;18.25;;;;;11.33;81.43;101809.91;5036997;28;45960;-82
2023/05/17 07:07:37;;;;;;;;;15.75;15.75;;;;;11.43;81.48;101816.69;5036407;28;45444;-77
2023/05/17 07:10:04;;;;;;;;;16.00;15.50;;;;;11.52;81.00;101816.44;5037016;28;45411;-82
2023/05/17 07:12:30;;;;;;;;;15.75;15.75;;;;;11.59;80.37;101816.28;5039256;28;45475;-70
2023/05/17 07:14:55;;;;;;;;;16.25;16.25;;;;;11.68;80.50;101818.75;5039763;28;46235;-77
2023/05/17 07:17:20;;;;;;;;;12.50;12.50;;;;;11.75;79.08;101815.03;5037291;28;45379;-79
2023/05/17 07:19:49;;;;;;;;;17.00;17.00;;;;;11.82;78.46;101821.00;5036743;28;45442;-82
2023/05/17 07:22:15;;;;;;;;;12.25;12.25;;;;;11.89;78.53;101822.56;5037672;28;45346;-80
2023/05/17 07:24:40;;;;;;;;;16.25;16.25;;;;;11.98;77.88;101824.97;5038853;28;46407;-80
2023/05/17 07:27:05;;;;;;;;;16.25;15.75;;;;;12.11;76.69;101837.88;5036560;28;61403;-84
2023/05/17 07:29:31;;;;;;;;;17.00;16.50;;;;;12.16;75.88;101830.69;5038469;28;45649;-82
2023/05/17 07:31:56;;;;;;;;;12.25;12.25;;;;;12.20;76.09;101835.00;5037639;28;45474;-84
2023/05/17 07:34:21;;;;;;;;;16.75;16.75;;;;;12.21;76.37;101826.19;5036515;28;54249;-83
2023/05/17 07:36:47;;;;;;;;;19.50;16.25;;;;;12.29;75.50;101839.16;5038720;28;48007;-80
2023/05/17 07:39:12;;;;;;;;;18.25;16.50;;;;;12.29;75.23;101831.25;5034775;28;45443;-66
2023/05/17 07:41:38;;;;;;;;;12.00;11.25;;;;;12.28;75.02;101832.16;5036250;28;45320;-76
2023/05/17 07:44:03;;;;;;;;;17.25;17.25;;;;;12.34;73.68;101850.44;5035336;28;45418;-67
2023/05/17 07:46:29;;;;;;;;;32.25;29.25;;;;;12.34;74.27;101836.41;5051051;28;45363;-70
2023/05/17 07:48:54;;;;;;;;;18.75;18.75;;;;;12.46;74.88;101840.47;5035962;28;45370;-71
2023/05/17 07:51:20;;;;;;;;;17.25;15.75;;;;;12.55;74.47;101838.44;5034633;28;45539;-73
2023/05/17 07:53:45;;;;;;;;;20.75;19.50;;;;;12.61;73.64;101845.31;5033884;28;45469;-67
2023/05/17 07:56:11;;;;;;;;;19.25;19.25;;;;;12.70;73.82;101838.91;5035752;28;45253;-72
2023/05/17 07:58:36;;;;;;;;;18.25;18.25;;;;;12.74;73.31;101832.63;5036093;28;45298;-68
2023/05/17 08:01:01;;;;;;;;;17.50;17.50;;;;;12.73;71.62;101835.34;5036743;28;45592;-68
2023/05/17 08:03:27;;;;;;;;;17.00;16.25;;;;;12.81;71.95;101855.28;5039393;28;46364;-65
2023/05/17 08:05:53;;;;;;;;;17.25;17.25;;;;;12.80;70.96;101848.28;5039207;28;45254;-66
2023/05/17 08:08:19;;;;;;;;;14.25;14.25;;;;;12.72;71.92;101850.28;5039665;28;45221;-69
2023/05/17 08:10:45;;;;;;;;;15.00;15.00;;;;;12.71;72.13;101848.56;5037586;28;45215;-66
2023/05/17 08:13:10;;;;;;;;;13.25;13.00;;;;;12.78;71.57;101851.91;5037505;28;48045;-66
2023/05/17 08:15:36;;;;;;;;;12.00;12.00;;;;;12.81;71.22;101842.09;5042110;28;45261;-65
2023/05/17 08:18:01;;;;;;;;;16.00;16.00;;;;;12.91;70.44;101847.09;5057153;28;45335;-68
2023/05/17 08:20:26;;;;;;;;;12.25;11.75;;;;;12.94;69.65;101839.97;5043701;28;45193;-76
2023/05/17 08:22:52;;;;;;;;;16.50;16.25;;;;;13.00;69.25;101841.53;5041851;28;46421;-66
2023/05/17 08:25:19;;;;;;;;;18.25;18.25;;;;;13.10;69.14;101836.84;5040167;28;45801;-70
2023/05/17 08:27:44;;;;;;;;;15.00;15.00;;;;;13.19;68.60;101846.25;5039289;28;45272;-66
2023/05/17 08:30:10;;;;;;;;;14.75;12.25;;;;;13.23;68.71;101838.19;5039972;28;52406;-67
2023/05/17 08:32:36;;;;;;;;;11.75;11.75;;;;;13.26;68.31;101843.41;5038881;28;45569;-71
2023/05/17 08:35:01;;;;;;;;;14.25;14.25;;;;;13.27;68.46;101845.13;5038225;28;45428;-69
2023/05/17 08:37:26;;;;;;;;;15.50;15.50;;;;;13.32;67.92;101836.19;5038699;28;45282;-64
2023/05/17 08:39:52;;;;;;;;;12.25;12.25;;;;;13.33;67.50;101825.59;5038638;28;45297;-67
2023/05/17 08:42:23;;;;;;;;;12.00;12.00;;;;;13.41;65.89;101830.59;5038747;28;45361;-66
2023/05/17 08:44:48;;;;;;;;;12.75;12.75;;;;;13.41;66.19;101820.91;5036885;28;45838;-65
2023/05/17 08:47:24;;;;;;;;;14.75;14.75;;;;;13.48;64.71;101828.69;5037099;28;45346;-64
2023/05/17 08:49:51;;;;;;;;;10.25;10.25;;;;;13.52;63.04;101833.78;5038406;28;45387;-75
2023/05/17 08:52:16;;;;;;;;;10.75;10.75;;;;;13.52;61.17;101828.50;5038063;28;46358;-67
2023/05/17 08:54:41;;;;;;;;;13.00;13.00;;;;;13.53;61.54;101834.69;5038472;28;45519;-68
2023/05/17 08:57:09;;;;;;;;;8.25;8.25;;;;;13.58;62.43;101830.09;5038490;28;45286;-75
2023/05/17 08:59:35;;;;;;;;;11.00;11.00;;;;;13.64;61.39;101821.97;5038262;28;45602;-68
2023/05/17 09:02:01;;;;;;;;;10.00;10.00;;;;;13.72;61.73;101817.28;5038401;28;46525;-73
2023/05/17 09:04:28;;;;;;;;;10.25;10.25;;;;;13.81;59.85;101818.75;5038554;28;45442;-76
2023/05/17 09:06:54;;;;;;;;;10.75;10.75;;;;;13.95;59.42;101825.34;5039228;28;45398;-71
2023/05/17 09:09:20;;;;;;;;;9.75;9.50;;;;;13.98;58.65;101814.66;5039878;28;45298;-78
2023/05/17 09:11:46;;;;;;;;;10.75;9.75;;;;;14.05;57.15;101824.13;5043648;28;46343;-82
2023/05/17 09:14:16;;;;;;;;;7.00;6.25;;;;;14.06;57.49;101812.63;5045929;28;45430;-78
2023/05/17 09:16:42;;;;;;;;;10.75;10.75;;;;;14.15;57.06;101830.81;5043778;28;45348;-75
2023/05/17 09:19:13;;;;;;;;;7.75;7.75;;;;;14.20;57.09;101816.56;5037607;28;45479;-70
2023/05/17 09:21:39;;;;;;;;;12.25;12.25;;;;;14.25;57.66;101822.53;5038399;28;46230;-67
2023/05/17 09:24:05;;;;;;;;;9.00;9.00;;;;;14.33;57.98;101820.50;5054994;28;45348;-74
2023/05/17 09:26:41;;;;;;;;;8.75;8.75;;;;;14.38;57.92;101813.25;5037383;28;45361;-74
2023/05/17 09:29:08;;;;;;;;;11.00;11.00;;;;;14.43;57.80;101816.59;5038514;28;45355;-67
2023/05/17 09:31:34;;;;;;;;;15.25;15.25;;;;;14.48;58.13;101819.06;5038059;28;45960;-77
2023/05/17 09:33:59;;;;;;;;;7.75;7.75;;;;;14.58;57.81;101815.16;5039943;28;45392;-69
2023/05/17 09:36:25;;;;;;;;;8.50;8.50;;;;;14.70;57.06;101813.84;5039916;28;45295;-67
2023/05/17 09:39:00;;;;;;;;;9.00;9.00;;;;;14.84;56.80;101826.59;5039177;28;45394;-65
2023/05/17 09:41:29;;;;;;;;;10.00;10.00;;;;;14.84;55.45;101812.47;5054740;28;48068;-72
2023/05/17 09:44:02;;;;;;;;;7.50;7.50;;;;;14.87;53.83;101826.47;5040960;28;45231;-69
2023/05/17 09:46:41;;;;;;;;;13.00;13.00;;;;;14.93;54.42;101828.03;5058445;28;45268;-75
2023/05/17 09:49:08;;;;;;;;;13.25;13.25;;;;;14.98;54.31;101820.75;5046029;28;45284;-69
2023/05/17 09:51:34;;;;;;;;;21.25;21.25;;;;;15.04;54.44;101825.81;5050231;28;45459;-67
2023/05/17 09:54:00;;;;;;;;;14.00;14.00;;;;;15.04;52.89;101804.63;5049079;28;44898;-65
2023/05/17 09:56:29;;;;;;;;;15.25;15.25;;;;;15.10;53.78;101811.44;5046386;28;45267;-66
2023/05/17 09:58:54;;;;;;;;;8.25;8.25;;;;;15.15;53.60;101809.47;5060452;28;45230;-76
2023/05/17 10:01:23;;;;;;;;;11.00;11.00;;;;;15.25;54.77;101810.00;5038995;28;45499;-72
2023/05/17 10:03:51;;;;;;;;;11.25;11.25;;;;;15.36;54.08;101812.19;5039968;28;45471;-77
2023/05/17 10:06:20;;;;;;;;;7.75;7.75;;;;;15.45;54.43;101818.91;5040830;28;45458;-73
2023/05/17 10:08:51;;;;;;;;;11.25;11.25;;;;;15.52;54.02;101811.59;5055963;28;45453;-65
2023/05/17 10:11:21;;;;;;;;;9.00;9.00;;;;;15.59;54.56;101819.19;5038246;28;46225;-67
2023/05/17 10:13:54;;;;;;;;;7.50;7.50;;;;;15.52;53.11;101791.22;5039075;28;45347;-68
2023/05/17 10:16:22;;;;;;;;;7.75;7.00;;;;;15.66;52.39;101814.53;5040093;28;45348;-75
2023/05/17 10:18:48;;;;;;;;;8.00;8.00;;;;;15.61;52.86;101814.69;5053860;28;45439;-78
2023/05/17 10:21:14;;;;;;;;;15.00;15.00;;;;;15.71;52.53;101801.03;5037652;28;45324;-66
2023/05/17 10:23:43;;;;;;;;;6.50;6.50;;;;;15.72;52.77;101800.13;5037064;28;45348;-75
2023/05/17 10:26:08;;;;;;;;;9.75;9.75;;;;;15.68;51.67;101795.88;5037394;28;45280;-81
2023/05/17 10:28:36;;;;;;;;;12.00;12.00;;;;;15.76;52.24;101807.00;5037595;28;45583;-77
2023/05/17 10:31:02;;;;;;;;;11.50;11.50;;;;;15.77;51.29;101801.66;5036722;28;46353;-73
2023/05/17 10:33:31;;;;;;;;;7.00;7.00;;;;;15.80;49.59;101795.34;5040942;28;45472;-70
2023/05/17 10:35:58;;;;;;;;;7.00;7.00;;;;;15.82;49.75;101800.59;5037341;28;45384;-70
2023/05/17 10:38:26;;;;;;;;;9.00;9.00;;;;;15.85;50.59;101798.66;5037999;28;45536;-76
2023/05/17 10:40:53;;;;;;;;;7.50;7.50;;;;;15.89;49.16;101796.78;5036706;28;46252;-71
2023/05/17 10:43:20;;;;;;;;;13.00;13.00;;;;;15.91;49.91;101787.84;5037305;28;45390;-80
2023/05/17 10:45:45;;;;;;;;;6.00;6.00;;;;;15.99;49.99;101786.66;5038906;28;45376;-73
2023/05/17 10:48:14;;;;;;;;;8.00;8.00;;;;;16.03;48.88;101770.50;5037022;28;45583;-81
2023/05/17 10:50:39;;;;;;;;;19.25;19.25;;;;;16.13;49.35;101776.28;5036682;28;46221;-81
2023/05/17 10:53:11;;;;;;;;;6.25;6.25;;;;;16.25;48.35;101779.31;5036892;28;45232;-78
2023/05/17 10:55:42;;;;;;;;;4.25;4.25;;;;;16.35;46.94;101765.53;5045270;28;45314;-74
2023/05/17 10:58:14;;;;;;;;;4.75;4.75;;;;;16.45;45.57;101770.44;5039703;28;45409;-70
2023/05/17 11:00:41;;;;;;;;;3.25;3.25;;;;;16.54;44.51;101774.47;5053891;28;47609;-76
2023/05/17 11:03:18;;;;;;;;;5.25;5.25;;;;;16.68;46.54;101776.47;5037533;28;45254;-76
2023/05/17 11:06:09;;;;;;;;;5.25;5.25;;;;;16.85;46.98;101778.31;5035358;28;45327;-67
2023/05/17 11:08:35;;;;;;;;;5.25;5.25;;;;;17.05;45.88;101764.13;5036721;28;45177;-69
2023/05/17 11:11:07;;;;;;;;;4.25;4.25;;;;;17.27;44.54;101766.59;5036435;28;45671;-76
2023/05/17 11:13:33;;;;;;;;;9.50;9.50;;;;;17.42;46.06;101767.59;5038210;28;45401;-73